Time,TemperatureF,DewpointF,PressureIn,WindDirection,WindDirectionDegrees,WindSpeedMPH,WindSpeedGustMPH,Humidity,HourlyPrecipIn,Conditions,Clouds,dailyrainin,SoftwareType,DateUTC
2013-01-31 06:01:00,33.0,33.0,30.22,WSW,248,0.0,0.0,100,0.00,,,0.08,,2013-01-31 14:01:00,
2013-01-31 06:11:00,33.0,33.0,30.22,WSW,248,0.0,0.0,100,0.00,,,0.08,,2013-01-31 14:11:00,
2013-01-31 06:21:00,33.0,33.0,30.23,WSW,248,0.0,0.0,100,0.00,,,0.08,,2013-01-31 14:21:00,
2013-01-31 06:31:00,33.0,33.0,30.23,WSW,248,0.0,0.0,100,0.00,,,0.08,,2013-01-31 14:31:00,
2013-01-31 06:41:00,33.0,33.0,30.23,WSW,248,0.0,0.0,100,0.00,,,0.08,,2013-01-31 14:41:00,
2013-01-31 06:52:00,33.0,33.0,30.23,WSW,248,0.0,0.0,100,0.00,,,0.08,,2013-01-31 14:52:00,
2013-01-31 07:01:00,34.0,34.0,30.23,WSW,248,0.0,0.0,100,0.00,,,0.08,,2013-01-31 15:01:00,
2013-01-31 07:11:00,33.0,33.0,30.23,WSW,248,0.0,0.0,100,0.00,,,0.08,,2013-01-31 15:11:00,
2013-01-31 07:21:00,33.0,33.0,30.23,WSW,248,0.0,0.0,100,0.00,,,0.08,,2013-01-31 15:21:00,
2013-01-31 07:31:00,33.0,33.0,30.23,WSW,248,0.0,0.0,100,0.00,,,0.08,,2013-01-31 15:31:00,
2013-01-31 07:42:00,33.0,33.0,30.23,WSW,248,0.0,0.0,100,0.00,,,0.08,,2013-01-31 15:42:00,
2013-01-31 07:52:00,34.0,34.0,30.23,WSW,248,0.0,0.0,100,0.00,,,0.08,,2013-01-31 15:52:00,
2013-01-31 08:02:00,34.0,34.0,30.23,WSW,248,0.0,0.0,100,0.00,,,0.08,,2013-01-31 16:02:00,
2013-01-31 08:11:00,34.0,34.0,30.24,WSW,248,0.0,0.0,100,0.00,,,0.08,,2013-01-31 16:11:00,
2013-01-31 08:21:00,34.0,34.0,30.24,WSW,248,0.0,0.0,100,0.00,,,0.08,,2013-01-31 16:21:00,
2013-01-31 08:32:00,34.0,34.0,30.24,WSW,248,0.0,0.0,100,0.00,,,0.08,,2013-01-31 16:32:00,
2013-01-31 08:41:00,34.0,34.0,30.24,WSW,248,0.0,0.0,100,0.00,,,0.08,,2013-01-31 16:41:00,
2013-01-31 08:51:00,34.0,34.0,30.24,WSW,248,0.0,0.0,100,0.00,,,0.08,,2013-01-31 16:51:00,
2013-01-31 09:01:00,35.0,35.0,30.24,WSW,248,0.0,0.0,100,0.00,,,0.08,,2013-01-31 17:01:00,
2013-01-31 09:12:00,35.0,35.0,30.24,WSW,248,0.0,0.0,100,0.00,,,0.08,,2013-01-31 17:12:00,
2013-01-31 09:22:00,35.0,35.0,30.24,WSW,248,0.0,0.0,100,0.00,,,0.08,,2013-01-31 17:22:00,
2013-01-31 09:31:00,35.0,35.0,30.24,WSW,248,0.0,0.0,100,0.00,,,0.08,,2013-01-31 17:31:00,
2013-01-31 09:43:00,35.0,35.0,30.24,WSW,248,0.0,0.0,100,0.00,,,0.08,,2013-01-31 17:43:00,
2013-01-31 09:53:00,35.0,35.0,30.24,WSW,248,0.0,0.0,100,0.00,,,0.08,,2013-01-31 17:53:00,
2013-01-31 10:02:00,35.0,35.0,30.24,WSW,248,0.0,0.0,100,0.00,,,0.08,,2013-01-31 18:02:00,
2013-01-31 10:12:00,35.0,35.0,30.24,WSW,248,0.0,0.0,100,0.00,,,0.08,,2013-01-31 18:12:00,
2013-01-31 10:21:00,35.0,35.0,30.24,WSW,248,0.0,0.0,100,0.00,,,0.08,,2013-01-31 18:21:00,
2013-01-31 10:31:00,35.0,35.0,30.25,WSW,248,0.0,0.0,100,0.00,,,0.08,,2013-01-31 18:31:00,
2013-01-31 10:42:00,35.0,35.0,30.25,WSW,248,0.0,0.0,100,0.00,,,0.08,,2013-01-31 18:42:00,
2013-01-31 10:52:00,36.0,36.0,30.25,SW,225,0.0,0.0,100,0.00,,,0.07,,2013-01-31 18:52:00,
2013-01-31 11:01:00,36.0,36.0,30.25,SW,225,7.0,7.0,100,0.00,,,0.03,,2013-01-31 19:01:00,
2013-01-31 11:11:00,36.0,36.0,30.25,SW,225,7.0,7.0,100,0.00,,,0.03,,2013-01-31 19:11:00,
2013-01-31 11:21:00,36.0,36.0,30.25,SSW,203,6.0,8.0,100,0.00,,,0.02,,2013-01-31 19:21:00,
2013-01-31 11:32:00,37.0,37.0,30.25,SW,225,0.0,3.0,100,0.00,,,0.01,,2013-01-31 19:32:00,
2013-01-31 11:42:00,37.0,37.0,30.25,SW,225,0.0,3.0,100,0.00,,,0.01,,2013-01-31 19:42:00,
2013-01-31 11:51:00,36.0,36.0,30.25,SW,225,1.0,8.0,100,0.00,,,0.01,,2013-01-31 19:51:00,
2013-01-31 12:01:00,37.0,37.0,30.24,SW,225,7.0,9.0,100,0.00,,,0.01,,2013-01-31 20:01:00,
2013-01-31 12:11:00,36.0,36.0,30.24,WSW,248,7.0,12.0,100,0.00,,,0.01,,2013-01-31 20:11:00,
2013-01-31 12:21:00,36.0,36.0,30.24,WSW,248,7.0,12.0,100,0.00,,,0.01,,2013-01-31 20:21:00,
2013-01-31 12:31:00,37.0,37.0,30.24,WSW,248,9.0,13.0,100,0.00,,,0.01,,2013-01-31 20:31:00,
2013-01-31 12:41:00,36.0,36.0,30.24,SSW,203,8.0,10.0,100,0.00,,,0.01,,2013-01-31 20:41:00,
2013-01-31 12:51:00,36.0,36.0,30.24,SSW,203,8.0,10.0,100,0.00,,,0.01,,2013-01-31 20:51:00,
2013-01-31 13:01:00,36.0,36.0,30.23,SSW,203,10.0,13.0,100,0.00,,,0.01,,2013-01-31 21:01:00,
2013-01-31 13:11:00,37.0,37.0,30.23,SW,225,8.0,8.0,100,0.00,,,0.01,,2013-01-31 21:11:00,
2013-01-31 13:21:00,37.0,37.0,30.23,SW,225,8.0,8.0,100,0.00,,,0.01,,2013-01-31 21:21:00,
2013-01-31 13:31:00,37.0,37.0,30.23,SW,225,5.0,8.0,100,0.00,,,0.01,,2013-01-31 21:31:00,
2013-01-31 13:42:00,37.0,37.0,30.23,SW,225,5.0,8.0,100,0.00,,,0.01,,2013-01-31 21:42:00,
2013-01-31 13:51:00,37.0,37.0,30.22,SW,225,10.0,14.0,100,0.00,,,0.01,,2013-01-31 21:51:00,
2013-01-31 14:02:00,37.0,37.0,30.22,SSW,203,8.0,9.0,100,0.00,,,0.01,,2013-01-31 22:02:00,
2013-01-31 14:11:00,38.0,38.0,30.22,SSW,203,7.0,15.0,100,0.00,,,0.01,,2013-01-31 22:11:00,
2013-01-31 14:21:00,38.0,38.0,30.22,SSW,203,7.0,15.0,100,0.00,,,0.01,,2013-01-31 22:21:00,
2013-01-31 14:32:00,39.0,39.0,30.22,SW,225,7.0,10.0,100,0.00,,,0.01,,2013-01-31 22:32:00,
2013-01-31 14:42:00,39.0,39.0,30.22,SW,225,7.0,10.0,100,0.00,,,0.01,,2013-01-31 22:42:00,
2013-01-31 14:51:00,39.0,39.0,30.21,SSW,203,6.0,13.0,100,0.00,,,0.01,,2013-01-31 22:51:00,
2013-01-31 15:01:00,38.0,38.0,30.22,SW,225,8.0,10.0,100,0.00,,,0.01,,2013-01-31 23:01:00,
2013-01-31 15:12:00,38.0,38.0,30.22,SW,225,8.0,10.0,100,0.00,,,0.01,,2013-01-31 23:12:00,
2013-01-31 15:21:00,38.0,38.0,30.22,SW,225,8.0,10.0,100,0.00,,,0.01,,2013-01-31 23:21:00,
2013-01-31 15:31:00,38.0,38.0,30.21,SW,225,7.0,10.0,100,0.00,,,0.01,,2013-01-31 23:31:00,
2013-01-31 15:41:00,38.0,38.0,30.21,SW,225,7.0,10.0,100,0.00,,,0.01,,2013-01-31 23:41:00,
2013-01-31 15:52:00,37.0,37.0,30.22,SSW,203,6.0,7.0,100,0.00,,,0.01,,2013-01-31 23:52:00,
2013-01-31 16:01:00,37.0,37.0,30.22,SW,225,1.0,6.0,100,0.00,,,0.01,,2013-02-01 00:01:00,
2013-01-31 16:11:00,37.0,37.0,30.22,SW,225,1.0,6.0,100,0.00,,,0.01,,2013-02-01 00:11:00,
2013-01-31 16:21:00,37.0,37.0,30.21,SW,225,6.0,12.0,100,0.00,,,0.01,,2013-02-01 00:21:00,
2013-01-31 16:31:00,37.0,37.0,30.21,WSW,248,0.0,0.0,100,0.00,,,0.01,,2013-02-01 00:31:00,
2013-01-31 16:42:00,37.0,37.0,30.21,WSW,248,0.0,0.0,100,0.00,,,0.01,,2013-02-01 00:42:00,
2013-01-31 16:51:00,37.0,37.0,30.20,SW,225,8.0,8.0,100,0.00,,,0.01,,2013-02-01 00:51:00,
2013-01-31 17:01:00,37.0,37.0,30.19,SW,225,6.0,9.0,100,0.00,,,0.01,,2013-02-01 01:01:00,
2013-01-31 17:11:00,37.0,37.0,30.19,SSW,203,3.0,7.0,100,0.00,,,0.01,,2013-02-01 01:11:00,
2013-01-31 17:21:00,37.0,37.0,30.19,SSW,203,3.0,7.0,100,0.00,,,0.01,,2013-02-01 01:21:00,
2013-01-31 17:31:00,37.0,37.0,30.19,SSW,203,3.0,6.0,100,0.00,,,0.01,,2013-02-01 01:31:00,
2013-01-31 17:41:00,37.0,37.0,30.19,SSW,203,3.0,6.0,100,0.00,,,0.01,,2013-02-01 01:41:00,
2013-01-31 17:51:00,37.0,37.0,30.19,SW,225,8.0,10.0,100,0.00,,,0.01,,2013-02-01 01:51:00,
2013-01-31 18:01:00,38.0,38.0,30.19,SW,225,6.0,8.0,100,0.00,,,0.01,,2013-02-01 02:01:00,
2013-01-31 18:11:00,38.0,38.0,30.19,SW,225,6.0,8.0,100,0.00,,,0.01,,2013-02-01 02:11:00,
2013-01-31 18:21:00,38.0,38.0,30.19,SW,225,5.0,8.0,100,0.00,,,0.01,,2013-02-01 02:21:00,
2013-01-31 18:31:00,37.0,37.0,30.19,SSW,203,6.0,7.0,100,0.00,,,0.01,,2013-02-01 02:31:00,
2013-01-31 18:41:00,37.0,37.0,30.19,SSW,203,6.0,7.0,100,0.00,,,0.01,,2013-02-01 02:41:00,
2013-01-31 18:52:00,37.0,37.0,30.19,SSW,203,7.0,8.0,100,0.00,,,0.01,,2013-02-01 02:52:00,
2013-01-31 19:01:00,37.0,37.0,30.18,South,180,0.0,0.0,100,0.00,,,0.01,,2013-02-01 03:01:00,
2013-01-31 19:11:00,37.0,37.0,30.18,South,180,0.0,0.0,100,0.00,,,0.01,,2013-02-01 03:11:00,
2013-01-31 19:21:00,37.0,37.0,30.17,South,180,0.0,0.0,100,0.00,,,0.01,,2013-02-01 03:21:00,
2013-01-31 19:32:00,37.0,37.0,30.17,SW,225,8.0,9.0,100,0.00,,,0.01,,2013-02-01 03:32:00,
2013-01-31 19:41:00,37.0,37.0,30.17,SW,225,8.0,9.0,100,0.00,,,0.01,,2013-02-01 03:41:00,
2013-01-31 19:51:00,37.0,37.0,30.17,North,0,0.0,0.0,100,0.00,,,0.01,,2013-02-01 03:51:00,
2013-01-31 20:02:00,36.0,36.0,30.18,North,0,0.0,0.0,100,0.00,,,0.01,,2013-02-01 04:02:00,
2013-01-31 20:11:00,36.0,36.0,30.18,SW,225,0.0,0.0,100,0.00,,,0.01,,2013-02-01 04:11:00,
2013-01-31 20:21:00,36.0,36.0,30.18,SW,225,0.0,0.0,100,0.00,,,0.01,,2013-02-01 04:21:00,
2013-01-31 20:31:00,36.0,36.0,30.17,SW,225,0.0,0.0,100,0.00,,,0.01,,2013-02-01 04:31:00,
2013-01-31 20:41:00,36.0,36.0,30.17,SW,225,0.0,0.0,100,0.00,,,0.01,,2013-02-01 04:41:00,
2013-01-31 20:51:00,36.0,36.0,30.17,WSW,248,0.0,0.0,100,0.00,,,0.01,,2013-02-01 04:51:00,
2013-01-31 21:03:00,36.0,36.0,30.16,WSW,248,0.0,0.0,100,0.00,,,0.01,,2013-02-01 05:03:00,
2013-01-31 21:11:00,36.0,36.0,30.16,WSW,248,0.0,0.0,100,0.00,,,0.01,,2013-02-01 05:11:00,
2013-01-31 21:22:00,36.0,36.0,30.16,WSW,248,0.0,0.0,100,0.00,,,0.01,,2013-02-01 05:22:00,
2013-01-31 21:31:00,36.0,36.0,30.16,WSW,248,0.0,0.0,100,0.00,,,0.01,,2013-02-01 05:31:00,
2013-01-31 21:41:00,36.0,36.0,30.16,WSW,248,0.0,0.0,100,0.00,,,0.01,,2013-02-01 05:41:00,
2013-01-31 21:52:00,36.0,36.0,30.16,SW,225,10.0,16.0,100,0.00,,,0.01,,2013-02-01 05:52:00,
2013-01-31 22:02:00,36.0,36.0,30.15,North,0,0.0,0.0,100,0.00,,,0.01,,2013-02-01 06:02:00,
2013-01-31 22:11:00,35.0,35.0,30.15,North,0,0.0,0.0,100,0.00,,,0.01,,2013-02-01 06:11:00,
2013-01-31 22:21:00,35.0,35.0,30.15,North,0,0.0,0.0,100,0.00,,,0.01,,2013-02-01 06:21:00,
2013-01-31 22:32:00,35.0,35.0,30.15,SSW,203,5.0,7.0,100,0.00,,,0.01,,2013-02-01 06:32:00,
2013-01-31 22:41:00,35.0,35.0,30.15,SSW,203,5.0,7.0,100,0.00,,,0.01,,2013-02-01 06:41:00,
2013-01-31 22:52:00,35.0,35.0,30.15,WSW,248,0.0,0.0,100,0.00,,,0.01,,2013-02-01 06:52:00,
2013-01-31 23:01:00,35.0,35.0,30.16,SW,225,0.0,0.0,100,0.00,,,0.01,,2013-02-01 07:01:00,
2013-01-31 23:11:00,35.0,35.0,30.16,SW,225,0.0,0.0,100,0.00,,,0.01,,2013-02-01 07:11:00,
2013-01-31 23:21:00,35.0,35.0,30.16,SW,225,0.0,0.0,100,0.00,,,0.01,,2013-02-01 07:21:00,
2013-01-31 23:32:00,34.0,34.0,30.16,SW,225,0.0,0.0,100,0.00,,,0.01,,2013-02-01 07:32:00,
2013-01-31 23:41:00,34.0,34.0,30.16,SW,225,0.0,0.0,100,0.00,,,0.01,,2013-02-01 07:41:00,
2013-01-31 23:51:00,34.0,34.0,30.16,SW,225,6.0,8.0,100,0.00,,,0.00,,2013-02-01 07:51:00,